sensor_id;sensor_type;location;lat;lon;timestamp;P1;durP1;ratioP1;P2;durP2;ratioP2
5878;SDS011;2965;42.640;23.370;2024-01-30T00:00:33;8.43;;;7.53;;
5878;SDS011;2965;42.640;23.370;2024-01-30T00:02:59;12.03;;;7.40;;
5878;SDS011;2965;42.640;23.370;2024-01-30T00:05:24;9.47;;;8.27;;
5878;SDS011;2965;42.640;23.370;2024-01-30T00:07:50;7.50;;;6.60;;
5878;SDS011;2965;42.640;23.370;2024-01-30T00:10:15;10.67;;;8.07;;
5878;SDS011;2965;42.640;23.370;2024-01-30T00:12:40;8.50;;;7.60;;
5878;SDS011;2965;42.640;23.370;2024-01-30T00:15:06;11.50;;;7.40;;
5878;SDS011;2965;42.640;23.370;2024-01-30T00:17:34;9.63;;;6.90;;
5878;SDS011;2965;42.640;23.370;2024-01-30T00:20:00;9.23;;;7.73;;
5878;SDS011;2965;42.640;23.370;2024-01-30T00:22:26;7.13;;;6.50;;
5878;SDS011;2965;42.640;23.370;2024-01-30T00:24:51;11.13;;;7.10;;
5878;SDS011;2965;42.640;23.370;2024-01-30T00:27:17;8.60;;;6.57;;
5878;SDS011;2965;42.640;23.370;2024-01-30T00:29:42;11.87;;;7.30;;
5878;SDS011;2965;42.640;23.370;2024-01-30T00:32:08;7.90;;;6.63;;
5878;SDS011;2965;42.640;23.370;2024-01-30T00:34:33;11.87;;;7.37;;
5878;SDS011;2965;42.640;23.370;2024-01-30T00:36:58;11.37;;;7.50;;
5878;SDS011;2965;42.640;23.370;2024-01-30T00:39:24;8.10;;;6.80;;
5878;SDS011;2965;42.640;23.370;2024-01-30T00:41:49;13.53;;;6.50;;
5878;SDS011;2965;42.640;23.370;2024-01-30T00:44:14;7.50;;;6.10;;
5878;SDS011;2965;42.640;23.370;2024-01-30T00:46:40;7.70;;;6.80;;
5878;SDS011;2965;42.640;23.370;2024-01-30T00:49:05;6.43;;;5.80;;
5878;SDS011;2965;42.640;23.370;2024-01-30T00:51:31;8.00;;;6.93;;
5878;SDS011;2965;42.640;23.370;2024-01-30T00:53:56;7.40;;;6.63;;
5878;SDS011;2965;42.640;23.370;2024-01-30T00:56:21;6.27;;;5.70;;
5878;SDS011;2965;42.640;23.370;2024-01-30T00:58:47;7.13;;;6.30;;
5878;SDS011;2965;42.640;23.370;2024-01-30T01:01:12;7.33;;;6.40;;
5878;SDS011;2965;42.640;23.370;2024-01-30T01:03:38;6.77;;;6.10;;
5878;SDS011;2965;42.640;23.370;2024-01-30T01:06:05;9.00;;;6.47;;
5878;SDS011;2965;42.640;23.370;2024-01-30T01:08:31;6.73;;;6.07;;
5878;SDS011;2965;42.640;23.370;2024-01-30T01:10:56;9.83;;;6.83;;
5878;SDS011;2965;42.640;23.370;2024-01-30T01:13:21;7.73;;;6.23;;
5878;SDS011;2965;42.640;23.370;2024-01-30T01:15:47;7.03;;;5.97;;
5878;SDS011;2965;42.640;23.370;2024-01-30T01:18:12;7.20;;;5.90;;
5878;SDS011;2965;42.640;23.370;2024-01-30T01:20:38;7.80;;;5.87;;
5878;SDS011;2965;42.640;23.370;2024-01-30T01:23:03;12.30;;;6.23;;
5878;SDS011;2965;42.640;23.370;2024-01-30T01:25:28;6.07;;;5.53;;
5878;SDS011;2965;42.640;23.370;2024-01-30T01:27:54;5.23;;;4.83;;
5878;SDS011;2965;42.640;23.370;2024-01-30T01:30:19;6.80;;;5.80;;
5878;SDS011;2965;42.640;23.370;2024-01-30T01:32:47;7.07;;;6.00;;
5878;SDS011;2965;42.640;23.370;2024-01-30T01:35:20;7.90;;;6.50;;
5878;SDS011;2965;42.640;23.370;2024-01-30T01:37:47;6.90;;;6.13;;
5878;SDS011;2965;42.640;23.370;2024-01-30T01:40:19;7.40;;;5.90;;
5878;SDS011;2965;42.640;23.370;2024-01-30T01:42:45;7.10;;;6.50;;
5878;SDS011;2965;42.640;23.370;2024-01-30T01:45:10;8.63;;;7.20;;
5878;SDS011;2965;42.640;23.370;2024-01-30T01:47:36;9.13;;;6.90;;
5878;SDS011;2965;42.640;23.370;2024-01-30T01:50:01;5.27;;;4.83;;
5878;SDS011;2965;42.640;23.370;2024-01-30T01:52:28;5.70;;;5.20;;
5878;SDS011;2965;42.640;23.370;2024-01-30T01:54:53;5.73;;;5.20;;
5878;SDS011;2965;42.640;23.370;2024-01-30T01:57:19;8.20;;;6.27;;
5878;SDS011;2965;42.640;23.370;2024-01-30T01:59:45;10.80;;;6.50;;
5878;SDS011;2965;42.640;23.370;2024-01-30T02:02:10;7.57;;;5.87;;
5878;SDS011;2965;42.640;23.370;2024-01-30T02:04:37;6.33;;;5.77;;
5878;SDS011;2965;42.640;23.370;2024-01-30T02:07:04;6.37;;;5.77;;
5878;SDS011;2965;42.640;23.370;2024-01-30T02:09:30;9.17;;;6.07;;
5878;SDS011;2965;42.640;23.370;2024-01-30T02:11:55;7.00;;;6.37;;
5878;SDS011;2965;42.640;23.370;2024-01-30T02:14:20;9.33;;;7.37;;
5878;SDS011;2965;42.640;23.370;2024-01-30T02:16:46;7.53;;;6.00;;
5878;SDS011;2965;42.640;23.370;2024-01-30T02:19:11;7.60;;;6.63;;
5878;SDS011;2965;42.640;23.370;2024-01-30T02:21:36;9.63;;;6.37;;
5878;SDS011;2965;42.640;23.370;2024-01-30T02:24:02;7.13;;;6.53;;
5878;SDS011;2965;42.640;23.370;2024-01-30T02:26:28;11.77;;;6.87;;
5878;SDS011;2965;42.640;23.370;2024-01-30T02:28:54;8.10;;;6.37;;
5878;SDS011;2965;42.640;23.370;2024-01-30T02:31:19;9.40;;;6.13;;
5878;SDS011;2965;42.640;23.370;2024-01-30T02:33:44;7.83;;;5.73;;
5878;SDS011;2965;42.640;23.370;2024-01-30T02:36:10;8.87;;;7.00;;
5878;SDS011;2965;42.640;23.370;2024-01-30T02:38:35;6.90;;;6.20;;
5878;SDS011;2965;42.640;23.370;2024-01-30T02:41:00;6.93;;;5.53;;
5878;SDS011;2965;42.640;23.370;2024-01-30T02:43:26;7.67;;;6.87;;
5878;SDS011;2965;42.640;23.370;2024-01-30T02:45:51;6.73;;;5.83;;
5878;SDS011;2965;42.640;23.370;2024-01-30T02:48:17;8.17;;;5.53;;
5878;SDS011;2965;42.640;23.370;2024-01-30T02:50:42;10.30;;;6.10;;
5878;SDS011;2965;42.640;23.370;2024-01-30T02:53:08;5.43;;;5.00;;
5878;SDS011;2965;42.640;23.370;2024-01-30T02:55:33;6.53;;;5.83;;
5878;SDS011;2965;42.640;23.370;2024-01-30T02:57:58;7.30;;;5.93;;
5878;SDS011;2965;42.640;23.370;2024-01-30T03:00:24;6.67;;;5.80;;
5878;SDS011;2965;42.640;23.370;2024-01-30T03:02:49;8.23;;;5.93;;
5878;SDS011;2965;42.640;23.370;2024-01-30T03:05:15;6.33;;;5.43;;
5878;SDS011;2965;42.640;23.370;2024-01-30T03:07:40;5.73;;;5.33;;
5878;SDS011;2965;42.640;23.370;2024-01-30T03:10:05;6.90;;;6.20;;
5878;SDS011;2965;42.640;23.370;2024-01-30T03:12:31;7.97;;;5.67;;
5878;SDS011;2965;42.640;23.370;2024-01-30T03:14:57;6.43;;;5.23;;
5878;SDS011;2965;42.640;23.370;2024-01-30T03:17:23;5.63;;;5.03;;
5878;SDS011;2965;42.640;23.370;2024-01-30T03:19:49;5.73;;;5.20;;
5878;SDS011;2965;42.640;23.370;2024-01-30T03:22:15;6.67;;;5.73;;
5878;SDS011;2965;42.640;23.370;2024-01-30T03:24:40;6.10;;;5.50;;
5878;SDS011;2965;42.640;23.370;2024-01-30T03:27:05;6.50;;;5.03;;
5878;SDS011;2965;42.640;23.370;2024-01-30T03:29:31;5.23;;;4.83;;
5878;SDS011;2965;42.640;23.370;2024-01-30T05:05:04;3.90;;;3.70;;
5878;SDS011;2965;42.640;23.370;2024-01-30T05:07:29;4.60;;;4.30;;
5878;SDS011;2965;42.640;23.370;2024-01-30T05:09:55;3.83;;;3.63;;
5878;SDS011;2965;42.640;23.370;2024-01-30T05:12:20;4.03;;;3.83;;
5878;SDS011;2965;42.640;23.370;2024-01-30T05:14:45;3.43;;;3.23;;
5878;SDS011;2965;42.640;23.370;2024-01-30T05:17:11;4.07;;;3.77;;
5878;SDS011;2965;42.640;23.370;2024-01-30T05:19:38;4.00;;;3.70;;
5878;SDS011;2965;42.640;23.370;2024-01-30T05:22:03;3.57;;;3.27;;
5878;SDS011;2965;42.640;23.370;2024-01-30T05:24:29;4.60;;;4.30;;
5878;SDS011;2965;42.640;23.370;2024-01-30T05:26:55;5.90;;;4.90;;
5878;SDS011;2965;42.640;23.370;2024-01-30T05:29:20;5.50;;;4.40;;
5878;SDS011;2965;42.640;23.370;2024-01-30T05:31:46;6.23;;;5.73;;
5878;SDS011;2965;42.640;23.370;2024-01-30T05:34:11;5.10;;;4.80;;
5878;SDS011;2965;42.640;23.370;2024-01-30T05:36:36;5.40;;;5.10;;
5878;SDS011;2965;42.640;23.370;2024-01-30T05:39:02;5.40;;;5.00;;
5878;SDS011;2965;42.640;23.370;2024-01-30T05:41:27;5.50;;;4.37;;
5878;SDS011;2965;42.640;23.370;2024-01-30T05:43:53;11.40;;;4.83;;
5878;SDS011;2965;42.640;23.370;2024-01-30T05:46:18;6.43;;;4.97;;
5878;SDS011;2965;42.640;23.370;2024-01-30T05:48:43;10.30;;;6.03;;
5878;SDS011;2965;42.640;23.370;2024-01-30T05:51:09;5.73;;;5.20;;
5878;SDS011;2965;42.640;23.370;2024-01-30T05:53:34;7.17;;;5.60;;
5878;SDS011;2965;42.640;23.370;2024-01-30T05:56:01;7.53;;;6.60;;
5878;SDS011;2965;42.640;23.370;2024-01-30T05:58:27;6.10;;;5.60;;
5878;SDS011;2965;42.640;23.370;2024-01-30T06:00:53;4.50;;;3.80;;
5878;SDS011;2965;42.640;23.370;2024-01-30T06:03:18;6.80;;;5.07;;
5878;SDS011;2965;42.640;23.370;2024-01-30T06:05:44;5.00;;;4.60;;
5878;SDS011;2965;42.640;23.370;2024-01-30T06:08:09;7.40;;;6.20;;
5878;SDS011;2965;42.640;23.370;2024-01-30T06:10:34;9.70;;;6.20;;
5878;SDS011;2965;42.640;23.370;2024-01-30T06:13:00;6.80;;;5.67;;
5878;SDS011;2965;42.640;23.370;2024-01-30T06:15:25;15.00;;;6.40;;
5878;SDS011;2965;42.640;23.370;2024-01-30T06:17:51;11.20;;;6.80;;
5878;SDS011;2965;42.640;23.370;2024-01-30T06:20:16;9.57;;;5.83;;
5878;SDS011;2965;42.640;23.370;2024-01-30T06:22:42;11.97;;;5.87;;
5878;SDS011;2965;42.640;23.370;2024-01-30T06:25:08;12.43;;;6.00;;
5878;SDS011;2965;42.640;23.370;2024-01-30T06:27:33;6.23;;;5.20;;
5878;SDS011;2965;42.640;23.370;2024-01-30T06:29:59;6.87;;;5.27;;
5878;SDS011;2965;42.640;23.370;2024-01-30T06:32:24;4.77;;;4.13;;
5878;SDS011;2965;42.640;23.370;2024-01-30T06:34:50;9.87;;;4.60;;
5878;SDS011;2965;42.640;23.370;2024-01-30T06:37:15;12.07;;;4.80;;
5878;SDS011;2965;42.640;23.370;2024-01-30T06:39:40;4.93;;;4.53;;
5878;SDS011;2965;42.640;23.370;2024-01-30T06:42:06;5.60;;;4.77;;
5878;SDS011;2965;42.640;23.370;2024-01-30T06:44:31;4.07;;;3.80;;
5878;SDS011;2965;42.640;23.370;2024-01-30T06:46:57;4.23;;;3.83;;
5878;SDS011;2965;42.640;23.370;2024-01-30T06:49:22;3.50;;;3.20;;
5878;SDS011;2965;42.640;23.370;2024-01-30T06:51:47;9.63;;;3.20;;
5878;SDS011;2965;42.640;23.370;2024-01-30T06:54:13;3.23;;;3.07;;
5878;SDS011;2965;42.640;23.370;2024-01-30T06:56:38;3.00;;;2.80;;
5878;SDS011;2965;42.640;23.370;2024-01-30T06:59:04;3.60;;;3.40;;
5878;SDS011;2965;42.640;23.370;2024-01-30T07:01:30;3.07;;;2.77;;
5878;SDS011;2965;42.640;23.370;2024-01-30T07:03:55;3.03;;;2.70;;
5878;SDS011;2965;42.640;23.370;2024-01-30T07:06:21;3.20;;;2.50;;
5878;SDS011;2965;42.640;23.370;2024-01-30T07:08:47;3.60;;;2.90;;
5878;SDS011;2965;42.640;23.370;2024-01-30T07:11:18;11.50;;;3.30;;
5878;SDS011;2965;42.640;23.370;2024-01-30T07:13:47;3.00;;;2.80;;
5878;SDS011;2965;42.640;23.370;2024-01-30T07:16:13;3.10;;;2.90;;
5878;SDS011;2965;42.640;23.370;2024-01-30T07:18:39;3.50;;;3.20;;
5878;SDS011;2965;42.640;23.370;2024-01-30T07:21:05;2.50;;;2.40;;
5878;SDS011;2965;42.640;23.370;2024-01-30T07:23:30;2.70;;;2.60;;
5878;SDS011;2965;42.640;23.370;2024-01-30T07:25:56;2.20;;;2.10;;
5878;SDS011;2965;42.640;23.370;2024-01-30T07:28:21;2.53;;;2.30;;
5878;SDS011;2965;42.640;23.370;2024-01-30T07:30:46;2.70;;;2.60;;
5878;SDS011;2965;42.640;23.370;2024-01-30T07:33:13;2.60;;;2.50;;
5878;SDS011;2965;42.640;23.370;2024-01-30T07:35:38;2.13;;;2.03;;
5878;SDS011;2965;42.640;23.370;2024-01-30T07:38:04;2.00;;;1.90;;
5878;SDS011;2965;42.640;23.370;2024-01-30T07:40:29;2.50;;;2.30;;
5878;SDS011;2965;42.640;23.370;2024-01-30T07:42:55;1.80;;;1.70;;
5878;SDS011;2965;42.640;23.370;2024-01-30T07:45:20;2.63;;;2.53;;
5878;SDS011;2965;42.640;23.370;2024-01-30T07:47:50;3.00;;;2.90;;
5878;SDS011;2965;42.640;23.370;2024-01-30T07:50:16;2.10;;;2.00;;
5878;SDS011;2965;42.640;23.370;2024-01-30T07:52:42;2.80;;;2.60;;
5878;SDS011;2965;42.640;23.370;2024-01-30T07:58:10;3.43;;;3.13;;
5878;SDS011;2965;42.640;23.370;2024-01-30T08:00:36;2.97;;;2.83;;
5878;SDS011;2965;42.640;23.370;2024-01-30T08:03:02;3.37;;;3.10;;
5878;SDS011;2965;42.640;23.370;2024-01-30T08:05:28;3.33;;;3.13;;
5878;SDS011;2965;42.640;23.370;2024-01-30T08:07:53;4.00;;;3.70;;
5878;SDS011;2965;42.640;23.370;2024-01-30T08:10:18;4.30;;;4.00;;
5878;SDS011;2965;42.640;23.370;2024-01-30T08:12:44;3.87;;;3.57;;
5878;SDS011;2965;42.640;23.370;2024-01-30T08:15:09;4.00;;;3.70;;
5878;SDS011;2965;42.640;23.370;2024-01-30T08:17:37;3.70;;;3.50;;
5878;SDS011;2965;42.640;23.370;2024-01-30T08:20:02;4.40;;;4.10;;
5878;SDS011;2965;42.640;23.370;2024-01-30T08:22:29;10.07;;;4.37;;
5878;SDS011;2965;42.640;23.370;2024-01-30T08:24:55;3.63;;;3.40;;
5878;SDS011;2965;42.640;23.370;2024-01-30T08:27:20;3.43;;;3.23;;
5878;SDS011;2965;42.640;23.370;2024-01-30T08:29:46;3.80;;;3.47;;
5878;SDS011;2965;42.640;23.370;2024-01-30T08:32:11;3.83;;;3.53;;
5878;SDS011;2965;42.640;23.370;2024-01-30T08:34:36;18.10;;;3.53;;
5878;SDS011;2965;42.640;23.370;2024-01-30T08:37:02;3.57;;;3.30;;
5878;SDS011;2965;42.640;23.370;2024-01-30T08:39:28;5.70;;;3.97;;
5878;SDS011;2965;42.640;23.370;2024-01-30T08:41:53;4.00;;;3.70;;
5878;SDS011;2965;42.640;23.370;2024-01-30T08:44:19;4.23;;;3.30;;
5878;SDS011;2965;42.640;23.370;2024-01-30T08:46:44;3.63;;;3.43;;
5878;SDS011;2965;42.640;23.370;2024-01-30T08:49:10;4.80;;;4.40;;
5878;SDS011;2965;42.640;23.370;2024-01-30T08:51:38;5.70;;;4.50;;
5878;SDS011;2965;42.640;23.370;2024-01-30T08:54:04;5.87;;;4.90;;
5878;SDS011;2965;42.640;23.370;2024-01-30T08:56:29;4.83;;;4.40;;
5878;SDS011;2965;42.640;23.370;2024-01-30T08:58:55;4.30;;;3.93;;
5878;SDS011;2965;42.640;23.370;2024-01-30T09:01:20;4.73;;;4.40;;
5878;SDS011;2965;42.640;23.370;2024-01-30T09:03:45;4.33;;;4.03;;
5878;SDS011;2965;42.640;23.370;2024-01-30T09:06:11;6.17;;;4.30;;
5878;SDS011;2965;42.640;23.370;2024-01-30T09:08:37;7.40;;;4.40;;
5878;SDS011;2965;42.640;23.370;2024-01-30T09:11:09;5.00;;;4.60;;
5878;SDS011;2965;42.640;23.370;2024-01-30T09:13:37;5.60;;;5.00;;
5878;SDS011;2965;42.640;23.370;2024-01-30T09:16:02;6.27;;;4.20;;
5878;SDS011;2965;42.640;23.370;2024-01-30T09:18:28;4.20;;;3.90;;
5878;SDS011;2965;42.640;23.370;2024-01-30T09:20:53;9.70;;;4.47;;
5878;SDS011;2965;42.640;23.370;2024-01-30T09:23:19;4.00;;;3.60;;
5878;SDS011;2965;42.640;23.370;2024-01-30T09:25:45;4.60;;;4.40;;
5878;SDS011;2965;42.640;23.370;2024-01-30T09:28:10;5.20;;;4.50;;
5878;SDS011;2965;42.640;23.370;2024-01-30T09:30:36;8.27;;;5.13;;
5878;SDS011;2965;42.640;23.370;2024-01-30T09:33:01;5.03;;;3.90;;
5878;SDS011;2965;42.640;23.370;2024-01-30T09:35:26;3.90;;;3.60;;
5878;SDS011;2965;42.640;23.370;2024-01-30T09:37:52;7.77;;;4.73;;
5878;SDS011;2965;42.640;23.370;2024-01-30T09:40:18;5.97;;;4.93;;
5878;SDS011;2965;42.640;23.370;2024-01-30T09:42:45;4.90;;;4.60;;
5878;SDS011;2965;42.640;23.370;2024-01-30T09:45:13;5.60;;;4.77;;
5878;SDS011;2965;42.640;23.370;2024-01-30T09:47:42;6.57;;;5.33;;
5878;SDS011;2965;42.640;23.370;2024-01-30T09:50:09;6.00;;;5.40;;
5878;SDS011;2965;42.640;23.370;2024-01-30T09:52:39;5.07;;;4.70;;
5878;SDS011;2965;42.640;23.370;2024-01-30T09:55:05;5.67;;;5.27;;
5878;SDS011;2965;42.640;23.370;2024-01-30T09:57:31;5.00;;;4.60;;
5878;SDS011;2965;42.640;23.370;2024-01-30T09:59:57;5.77;;;5.27;;
5878;SDS011;2965;42.640;23.370;2024-01-30T10:02:22;5.80;;;5.30;;
5878;SDS011;2965;42.640;23.370;2024-01-30T10:04:48;7.90;;;5.73;;
5878;SDS011;2965;42.640;23.370;2024-01-30T10:07:15;5.13;;;4.40;;
5878;SDS011;2965;42.640;23.370;2024-01-30T10:09:41;4.07;;;3.87;;
5878;SDS011;2965;42.640;23.370;2024-01-30T10:12:06;5.13;;;4.50;;
5878;SDS011;2965;42.640;23.370;2024-01-30T10:14:33;4.10;;;3.87;;
5878;SDS011;2965;42.640;23.370;2024-01-30T10:17:00;4.53;;;4.23;;
5878;SDS011;2965;42.640;23.370;2024-01-30T10:19:26;6.00;;;4.87;;
5878;SDS011;2965;42.640;23.370;2024-01-30T10:21:52;5.20;;;4.80;;
5878;SDS011;2965;42.640;23.370;2024-01-30T10:24:18;4.37;;;3.80;;
5878;SDS011;2965;42.640;23.370;2024-01-30T10:26:43;4.43;;;4.03;;
5878;SDS011;2965;42.640;23.370;2024-01-30T10:29:09;5.10;;;4.60;;
5878;SDS011;2965;42.640;23.370;2024-01-30T10:31:35;4.90;;;4.20;;
5878;SDS011;2965;42.640;23.370;2024-01-30T10:34:00;4.40;;;4.20;;
5878;SDS011;2965;42.640;23.370;2024-01-30T10:36:28;4.43;;;4.13;;
5878;SDS011;2965;42.640;23.370;2024-01-30T10:38:58;6.23;;;4.17;;
5878;SDS011;2965;42.640;23.370;2024-01-30T10:41:27;3.87;;;3.67;;
5878;SDS011;2965;42.640;23.370;2024-01-30T10:44:05;4.67;;;4.37;;
5878;SDS011;2965;42.640;23.370;2024-01-30T10:46:33;9.20;;;3.60;;
5878;SDS011;2965;42.640;23.370;2024-01-30T10:49:02;4.23;;;4.03;;
5878;SDS011;2965;42.640;23.370;2024-01-30T10:51:29;3.90;;;3.70;;
5878;SDS011;2965;42.640;23.370;2024-01-30T10:53:56;4.10;;;3.90;;
5878;SDS011;2965;42.640;23.370;2024-01-30T10:56:22;4.00;;;3.80;;
5878;SDS011;2965;42.640;23.370;2024-01-30T10:58:51;3.80;;;3.50;;
5878;SDS011;2965;42.640;23.370;2024-01-30T11:01:18;4.27;;;4.03;;
5878;SDS011;2965;42.640;23.370;2024-01-30T11:03:47;4.43;;;4.23;;
5878;SDS011;2965;42.640;23.370;2024-01-30T11:06:16;4.63;;;4.33;;
5878;SDS011;2965;42.640;23.370;2024-01-30T11:08:43;3.67;;;3.37;;
5878;SDS011;2965;42.640;23.370;2024-01-30T11:11:10;5.30;;;4.80;;
5878;SDS011;2965;42.640;23.370;2024-01-30T11:13:35;3.87;;;3.67;;
5878;SDS011;2965;42.640;23.370;2024-01-30T11:16:02;3.60;;;3.40;;
5878;SDS011;2965;42.640;23.370;2024-01-30T11:18:31;4.17;;;3.87;;
5878;SDS011;2965;42.640;23.370;2024-01-30T11:20:58;4.17;;;3.83;;
5878;SDS011;2965;42.640;23.370;2024-01-30T11:23:27;3.80;;;3.60;;
5878;SDS011;2965;42.640;23.370;2024-01-30T11:25:53;3.90;;;3.70;;
5878;SDS011;2965;42.640;23.370;2024-01-30T11:28:19;3.90;;;3.70;;
5878;SDS011;2965;42.640;23.370;2024-01-30T11:30:47;3.87;;;3.67;;
5878;SDS011;2965;42.640;23.370;2024-01-30T11:33:16;4.27;;;4.07;;
5878;SDS011;2965;42.640;23.370;2024-01-30T11:35:53;4.57;;;4.17;;
5878;SDS011;2965;42.640;23.370;2024-01-30T11:38:18;4.07;;;3.77;;
5878;SDS011;2965;42.640;23.370;2024-01-30T11:40:43;4.53;;;4.13;;
5878;SDS011;2965;42.640;23.370;2024-01-30T11:43:09;6.07;;;4.17;;
5878;SDS011;2965;42.640;23.370;2024-01-30T11:45:35;5.37;;;4.40;;
5878;SDS011;2965;42.640;23.370;2024-01-30T11:48:02;3.37;;;3.27;;
5878;SDS011;2965;42.640;23.370;2024-01-30T11:50:34;3.67;;;3.47;;
5878;SDS011;2965;42.640;23.370;2024-01-30T11:53:00;3.83;;;3.63;;
5878;SDS011;2965;42.640;23.370;2024-01-30T11:55:26;8.70;;;3.77;;
5878;SDS011;2965;42.640;23.370;2024-01-30T11:57:57;4.03;;;3.83;;
5878;SDS011;2965;42.640;23.370;2024-01-30T12:00:23;3.97;;;3.77;;
5878;SDS011;2965;42.640;23.370;2024-01-30T12:02:50;3.97;;;3.77;;
5878;SDS011;2965;42.640;23.370;2024-01-30T12:05:18;4.00;;;3.30;;
5878;SDS011;2965;42.640;23.370;2024-01-30T12:07:45;4.07;;;3.83;;
5878;SDS011;2965;42.640;23.370;2024-01-30T12:10:12;3.70;;;3.40;;
5878;SDS011;2965;42.640;23.370;2024-01-30T12:12:38;4.43;;;3.97;;
5878;SDS011;2965;42.640;23.370;2024-01-30T12:15:05;3.67;;;3.53;;
5878;SDS011;2965;42.640;23.370;2024-01-30T12:17:32;4.60;;;4.23;;
5878;SDS011;2965;42.640;23.370;2024-01-30T12:20:05;3.73;;;3.53;;
5878;SDS011;2965;42.640;23.370;2024-01-30T12:25:08;4.60;;;4.20;;
5878;SDS011;2965;42.640;23.370;2024-01-30T12:27:37;5.67;;;4.87;;
5878;SDS011;2965;42.640;23.370;2024-01-30T12:30:06;5.47;;;4.97;;
5878;SDS011;2965;42.640;23.370;2024-01-30T12:32:34;5.23;;;4.83;;
5878;SDS011;2965;42.640;23.370;2024-01-30T12:35:01;12.53;;;4.80;;
5878;SDS011;2965;42.640;23.370;2024-01-30T12:37:27;5.03;;;4.73;;
5878;SDS011;2965;42.640;23.370;2024-01-30T12:39:52;5.27;;;4.90;;
5878;SDS011;2965;42.640;23.370;2024-01-30T12:42:21;4.93;;;4.63;;
5878;SDS011;2965;42.640;23.370;2024-01-30T12:44:47;5.10;;;4.60;;
5878;SDS011;2965;42.640;23.370;2024-01-30T12:47:13;4.57;;;4.37;;
5878;SDS011;2965;42.640;23.370;2024-01-30T12:49:41;6.37;;;4.47;;
5878;SDS011;2965;42.640;23.370;2024-01-30T12:52:08;7.97;;;4.47;;
5878;SDS011;2965;42.640;23.370;2024-01-30T12:54:33;4.83;;;4.53;;
5878;SDS011;2965;42.640;23.370;2024-01-30T12:56:59;4.77;;;4.43;;
5878;SDS011;2965;42.640;23.370;2024-01-30T12:59:24;7.43;;;4.87;;
5878;SDS011;2965;42.640;23.370;2024-01-30T13:01:49;4.73;;;4.33;;
5878;SDS011;2965;42.640;23.370;2024-01-30T13:04:15;5.00;;;4.53;;
5878;SDS011;2965;42.640;23.370;2024-01-30T13:06:41;4.57;;;4.17;;
5878;SDS011;2965;42.640;23.370;2024-01-30T13:09:07;5.40;;;4.90;;
5878;SDS011;2965;42.640;23.370;2024-01-30T13:11:32;4.67;;;4.40;;
5878;SDS011;2965;42.640;23.370;2024-01-30T13:13:58;5.27;;;3.80;;
5878;SDS011;2965;42.640;23.370;2024-01-30T13:16:23;5.30;;;5.00;;
5878;SDS011;2965;42.640;23.370;2024-01-30T13:18:48;5.43;;;4.93;;
5878;SDS011;2965;42.640;23.370;2024-01-30T13:21:15;5.90;;;5.27;;
5878;SDS011;2965;42.640;23.370;2024-01-30T13:23:40;8.27;;;4.70;;
5878;SDS011;2965;42.640;23.370;2024-01-30T13:26:06;6.23;;;5.70;;
5878;SDS011;2965;42.640;23.370;2024-01-30T13:28:32;6.53;;;5.43;;
5878;SDS011;2965;42.640;23.370;2024-01-30T13:30:57;5.87;;;5.43;;
5878;SDS011;2965;42.640;23.370;2024-01-30T13:33:23;5.97;;;5.23;;
5878;SDS011;2965;42.640;23.370;2024-01-30T13:35:48;5.93;;;5.40;;
5878;SDS011;2965;42.640;23.370;2024-01-30T13:38:14;5.50;;;5.10;;
5878;SDS011;2965;42.640;23.370;2024-01-30T13:40:40;9.80;;;5.13;;
5878;SDS011;2965;42.640;23.370;2024-01-30T13:43:11;6.00;;;5.50;;
5878;SDS011;2965;42.640;23.370;2024-01-30T13:45:37;6.23;;;5.63;;
5878;SDS011;2965;42.640;23.370;2024-01-30T13:48:02;6.17;;;5.63;;
5878;SDS011;2965;42.640;23.370;2024-01-30T13:50:28;7.43;;;5.57;;
5878;SDS011;2965;42.640;23.370;2024-01-30T13:52:53;6.20;;;5.63;;
5878;SDS011;2965;42.640;23.370;2024-01-30T13:55:19;5.37;;;4.97;;
5878;SDS011;2965;42.640;23.370;2024-01-30T13:57:44;12.13;;;5.30;;
5878;SDS011;2965;42.640;23.370;2024-01-30T14:00:10;5.63;;;5.13;;
5878;SDS011;2965;42.640;23.370;2024-01-30T14:02:36;5.27;;;4.63;;
5878;SDS011;2965;42.640;23.370;2024-01-30T14:05:01;5.83;;;4.97;;
5878;SDS011;2965;42.640;23.370;2024-01-30T14:07:27;7.30;;;4.73;;
5878;SDS011;2965;42.640;23.370;2024-01-30T14:09:53;7.53;;;4.90;;
5878;SDS011;2965;42.640;23.370;2024-01-30T14:12:18;8.00;;;5.63;;
5878;SDS011;2965;42.640;23.370;2024-01-30T14:14:43;5.80;;;5.37;;
5878;SDS011;2965;42.640;23.370;2024-01-30T14:17:09;8.23;;;5.70;;
5878;SDS011;2965;42.640;23.370;2024-01-30T14:19:35;7.87;;;5.67;;
5878;SDS011;2965;42.640;23.370;2024-01-30T14:22:00;6.00;;;5.40;;
5878;SDS011;2965;42.640;23.370;2024-01-30T14:24:26;6.03;;;5.57;;
5878;SDS011;2965;42.640;23.370;2024-01-30T14:26:52;5.00;;;4.63;;
5878;SDS011;2965;42.640;23.370;2024-01-30T14:29:17;9.10;;;5.33;;
5878;SDS011;2965;42.640;23.370;2024-01-30T14:31:43;6.13;;;5.60;;
5878;SDS011;2965;42.640;23.370;2024-01-30T14:34:08;9.30;;;5.60;;
5878;SDS011;2965;42.640;23.370;2024-01-30T14:36:35;6.00;;;5.50;;
5878;SDS011;2965;42.640;23.370;2024-01-30T14:39:02;6.17;;;5.40;;
5878;SDS011;2965;42.640;23.370;2024-01-30T14:41:28;6.03;;;5.47;;
5878;SDS011;2965;42.640;23.370;2024-01-30T14:43:54;8.77;;;5.70;;
5878;SDS011;2965;42.640;23.370;2024-01-30T14:46:19;5.57;;;5.17;;
5878;SDS011;2965;42.640;23.370;2024-01-30T14:48:45;8.93;;;5.60;;
5878;SDS011;2965;42.640;23.370;2024-01-30T14:51:11;7.23;;;4.90;;
5878;SDS011;2965;42.640;23.370;2024-01-30T14:53:37;5.07;;;4.73;;
5878;SDS011;2965;42.640;23.370;2024-01-30T14:56:02;5.90;;;5.00;;
5878;SDS011;2965;42.640;23.370;2024-01-30T14:58:28;4.93;;;4.63;;
5878;SDS011;2965;42.640;23.370;2024-01-30T15:00:53;5.00;;;4.60;;
5878;SDS011;2965;42.640;23.370;2024-01-30T15:03:19;8.63;;;4.40;;
5878;SDS011;2965;42.640;23.370;2024-01-30T15:05:44;5.83;;;5.43;;
5878;SDS011;2965;42.640;23.370;2024-01-30T15:08:10;5.53;;;4.70;;
5878;SDS011;2965;42.640;23.370;2024-01-30T15:10:35;6.03;;;5.33;;
5878;SDS011;2965;42.640;23.370;2024-01-30T15:13:01;5.20;;;4.83;;
5878;SDS011;2965;42.640;23.370;2024-01-30T15:15:26;4.70;;;4.40;;
5878;SDS011;2965;42.640;23.370;2024-01-30T15:17:53;5.10;;;4.60;;
5878;SDS011;2965;42.640;23.370;2024-01-30T15:20:19;5.57;;;5.20;;
5878;SDS011;2965;42.640;23.370;2024-01-30T15:22:44;5.27;;;4.00;;
5878;SDS011;2965;42.640;23.370;2024-01-30T15:25:10;7.33;;;5.60;;
5878;SDS011;2965;42.640;23.370;2024-01-30T15:27:36;4.60;;;4.40;;
5878;SDS011;2965;42.640;23.370;2024-01-30T15:30:02;7.17;;;5.80;;
5878;SDS011;2965;42.640;23.370;2024-01-30T15:32:27;11.63;;;4.77;;
5878;SDS011;2965;42.640;23.370;2024-01-30T15:34:53;9.57;;;5.40;;
5878;SDS011;2965;42.640;23.370;2024-01-30T15:37:19;5.40;;;5.00;;
5878;SDS011;2965;42.640;23.370;2024-01-30T15:39:45;6.93;;;4.97;;
5878;SDS011;2965;42.640;23.370;2024-01-30T15:42:10;4.70;;;4.40;;
5878;SDS011;2965;42.640;23.370;2024-01-30T15:44:36;6.23;;;5.70;;
5878;SDS011;2965;42.640;23.370;2024-01-30T15:47:01;6.00;;;5.40;;
5878;SDS011;2965;42.640;23.370;2024-01-30T15:49:27;8.47;;;5.73;;
5878;SDS011;2965;42.640;23.370;2024-01-30T15:51:52;5.43;;;5.10;;
5878;SDS011;2965;42.640;23.370;2024-01-30T15:54:17;5.53;;;4.83;;
5878;SDS011;2965;42.640;23.370;2024-01-30T15:56:43;6.20;;;5.10;;
5878;SDS011;2965;42.640;23.370;2024-01-30T15:59:09;8.10;;;5.33;;
5878;SDS011;2965;42.640;23.370;2024-01-30T16:01:34;6.00;;;5.40;;
5878;SDS011;2965;42.640;23.370;2024-01-30T16:04:00;7.00;;;5.87;;
5878;SDS011;2965;42.640;23.370;2024-01-30T16:06:25;9.70;;;6.63;;
5878;SDS011;2965;42.640;23.370;2024-01-30T16:08:51;8.10;;;5.53;;
5878;SDS011;2965;42.640;23.370;2024-01-30T16:11:16;5.80;;;5.23;;
5878;SDS011;2965;42.640;23.370;2024-01-30T16:13:42;9.30;;;6.30;;
5878;SDS011;2965;42.640;23.370;2024-01-30T16:16:08;15.33;;;6.30;;
5878;SDS011;2965;42.640;23.370;2024-01-30T16:18:33;8.80;;;7.30;;
5878;SDS011;2965;42.640;23.370;2024-01-30T16:20:59;8.60;;;7.03;;
5878;SDS011;2965;42.640;23.370;2024-01-30T16:23:25;10.50;;;7.20;;
5878;SDS011;2965;42.640;23.370;2024-01-30T16:25:54;14.20;;;7.70;;
5878;SDS011;2965;42.640;23.370;2024-01-30T16:28:19;8.80;;;7.40;;
5878;SDS011;2965;42.640;23.370;2024-01-30T16:30:49;10.17;;;6.87;;